sensor_id;sensor_type;location;lat;lon;timestamp;P1;durP1;ratioP1;P2;durP2;ratioP2
12407;SDS011;6268;48.188;17.134;2022-10-30T00:02:08;49.30;;;29.02;;
12407;SDS011;6268;48.188;17.134;2022-10-30T00:04:37;48.47;;;29.00;;
12407;SDS011;6268;48.188;17.134;2022-10-30T00:07:05;45.97;;;28.15;;
12407;SDS011;6268;48.188;17.134;2022-10-30T00:09:34;40.92;;;26.40;;
12407;SDS011;6268;48.188;17.134;2022-10-30T00:12:04;45.97;;;27.58;;
12407;SDS011;6268;48.188;17.134;2022-10-30T00:14:33;50.10;;;28.55;;
12407;SDS011;6268;48.188;17.134;2022-10-30T00:17:01;51.35;;;30.15;;
12407;SDS011;6268;48.188;17.134;2022-10-30T00:19:30;47.78;;;27.73;;
12407;SDS011;6268;48.188;17.134;2022-10-30T00:21:59;47.33;;;27.75;;
12407;SDS011;6268;48.188;17.134;2022-10-30T00:24:27;52.60;;;29.40;;
12407;SDS011;6268;48.188;17.134;2022-10-30T00:26:56;61.03;;;32.40;;
12407;SDS011;6268;48.188;17.134;2022-10-30T00:29:26;64.80;;;32.63;;
12407;SDS011;6268;48.188;17.134;2022-10-30T00:31:55;60.60;;;31.85;;
12407;SDS011;6268;48.188;17.134;2022-10-30T00:34:24;61.72;;;32.95;;
12407;SDS011;6268;48.188;17.134;2022-10-30T00:36:52;55.53;;;30.67;;
12407;SDS011;6268;48.188;17.134;2022-10-30T00:39:21;59.95;;;31.17;;
12407;SDS011;6268;48.188;17.134;2022-10-30T00:41:50;56.83;;;30.48;;
12407;SDS011;6268;48.188;17.134;2022-10-30T00:44:33;57.88;;;31.45;;
12407;SDS011;6268;48.188;17.134;2022-10-30T00:47:09;61.78;;;34.55;;
12407;SDS011;6268;48.188;17.134;2022-10-30T00:49:52;74.40;;;39.25;;
12407;SDS011;6268;48.188;17.134;2022-10-30T00:52:30;67.63;;;37.42;;
12407;SDS011;6268;48.188;17.134;2022-10-30T00:55:05;80.88;;;41.65;;
12407;SDS011;6268;48.188;17.134;2022-10-30T00:57:40;74.07;;;40.20;;
12407;SDS011;6268;48.188;17.134;2022-10-30T01:00:13;72.13;;;40.97;;
12407;SDS011;6268;48.188;17.134;2022-10-30T01:02:44;80.35;;;42.70;;
12407;SDS011;6268;48.188;17.134;2022-10-30T01:05:14;81.47;;;41.10;;
12407;SDS011;6268;48.188;17.134;2022-10-30T01:07:47;64.78;;;38.60;;
12407;SDS011;6268;48.188;17.134;2022-10-30T01:10:15;66.30;;;39.35;;
12407;SDS011;6268;48.188;17.134;2022-10-30T01:12:45;61.17;;;36.08;;
12407;SDS011;6268;48.188;17.134;2022-10-30T01:15:16;61.60;;;35.00;;
12407;SDS011;6268;48.188;17.134;2022-10-30T01:24:09;58.45;;;33.08;;
12407;SDS011;6268;48.188;17.134;2022-10-30T01:27:00;57.90;;;33.67;;
12407;SDS011;6268;48.188;17.134;2022-10-30T01:29:54;60.28;;;33.05;;
12407;SDS011;6268;48.188;17.134;2022-10-30T01:32:44;47.50;;;29.65;;
12407;SDS011;6268;48.188;17.134;2022-10-30T01:35:33;45.63;;;26.95;;
12407;SDS011;6268;48.188;17.134;2022-10-30T01:38:11;43.20;;;25.73;;
12407;SDS011;6268;48.188;17.134;2022-10-30T01:40:48;41.08;;;26.65;;
12407;SDS011;6268;48.188;17.134;2022-10-30T01:43:17;37.63;;;25.17;;
12407;SDS011;6268;48.188;17.134;2022-10-30T01:45:51;34.42;;;24.02;;
12407;SDS011;6268;48.188;17.134;2022-10-30T01:52:05;39.55;;;26.23;;
12407;SDS011;6268;48.188;17.134;2022-10-30T01:54:45;35.78;;;24.48;;
12407;SDS011;6268;48.188;17.134;2022-10-30T01:57:30;34.38;;;22.77;;
12407;SDS011;6268;48.188;17.134;2022-10-30T02:00:05;37.38;;;24.73;;
12407;SDS011;6268;48.188;17.134;2022-10-30T02:02:37;38.25;;;24.92;;
12407;SDS011;6268;48.188;17.134;2022-10-30T02:05:10;40.55;;;25.60;;
12407;SDS011;6268;48.188;17.134;2022-10-30T02:07:48;37.17;;;26.10;;
12407;SDS011;6268;48.188;17.134;2022-10-30T02:10:17;39.33;;;25.23;;
12407;SDS011;6268;48.188;17.134;2022-10-30T02:12:46;41.80;;;26.52;;
12407;SDS011;6268;48.188;17.134;2022-10-30T02:15:14;38.97;;;25.77;;
12407;SDS011;6268;48.188;17.134;2022-10-30T02:17:44;39.20;;;26.13;;
12407;SDS011;6268;48.188;17.134;2022-10-30T02:20:15;40.40;;;26.80;;
12407;SDS011;6268;48.188;17.134;2022-10-30T02:22:44;47.65;;;28.73;;
12407;SDS011;6268;48.188;17.134;2022-10-30T02:25:19;39.42;;;25.73;;
12407;SDS011;6268;48.188;17.134;2022-10-30T02:27:48;35.53;;;24.00;;
12407;SDS011;6268;48.188;17.134;2022-10-30T02:30:16;35.67;;;24.45;;
12407;SDS011;6268;48.188;17.134;2022-10-30T02:32:45;32.88;;;22.95;;
12407;SDS011;6268;48.188;17.134;2022-10-30T02:35:15;35.05;;;24.38;;
12407;SDS011;6268;48.188;17.134;2022-10-30T02:37:46;30.55;;;22.85;;
12407;SDS011;6268;48.188;17.134;2022-10-30T02:40:15;34.00;;;23.27;;
12407;SDS011;6268;48.188;17.134;2022-10-30T02:42:46;33.72;;;23.80;;
12407;SDS011;6268;48.188;17.134;2022-10-30T02:45:19;34.00;;;23.75;;
12407;SDS011;6268;48.188;17.134;2022-10-30T02:47:48;35.33;;;23.35;;
12407;SDS011;6268;48.188;17.134;2022-10-30T02:50:18;30.88;;;21.90;;
12407;SDS011;6268;48.188;17.134;2022-10-30T02:52:47;29.48;;;21.00;;
12407;SDS011;6268;48.188;17.134;2022-10-30T02:55:15;26.77;;;19.50;;
12407;SDS011;6268;48.188;17.134;2022-10-30T02:57:44;29.98;;;19.60;;
12407;SDS011;6268;48.188;17.134;2022-10-30T03:00:13;28.10;;;20.02;;
12407;SDS011;6268;48.188;17.134;2022-10-30T03:02:42;30.08;;;20.13;;
12407;SDS011;6268;48.188;17.134;2022-10-30T03:05:11;29.15;;;20.17;;
12407;SDS011;6268;48.188;17.134;2022-10-30T03:07:41;29.75;;;21.10;;
12407;SDS011;6268;48.188;17.134;2022-10-30T03:10:09;31.90;;;20.13;;
12407;SDS011;6268;48.188;17.134;2022-10-30T03:12:38;27.90;;;19.35;;
12407;SDS011;6268;48.188;17.134;2022-10-30T03:15:07;32.13;;;20.55;;
12407;SDS011;6268;48.188;17.134;2022-10-30T03:17:36;30.77;;;21.73;;
12407;SDS011;6268;48.188;17.134;2022-10-30T03:20:05;28.17;;;19.40;;
12407;SDS011;6268;48.188;17.134;2022-10-30T03:22:35;32.50;;;21.17;;
12407;SDS011;6268;48.188;17.134;2022-10-30T03:25:05;26.95;;;19.02;;
12407;SDS011;6268;48.188;17.134;2022-10-30T03:27:35;31.55;;;21.38;;
12407;SDS011;6268;48.188;17.134;2022-10-30T03:30:04;28.83;;;20.05;;
12407;SDS011;6268;48.188;17.134;2022-10-30T03:32:34;28.70;;;19.83;;
12407;SDS011;6268;48.188;17.134;2022-10-30T03:35:03;28.38;;;19.35;;
12407;SDS011;6268;48.188;17.134;2022-10-30T03:37:32;27.98;;;19.98;;
12407;SDS011;6268;48.188;17.134;2022-10-30T03:40:00;25.10;;;18.63;;
12407;SDS011;6268;48.188;17.134;2022-10-30T03:42:30;28.20;;;20.65;;
12407;SDS011;6268;48.188;17.134;2022-10-30T03:44:59;28.33;;;21.67;;
12407;SDS011;6268;48.188;17.134;2022-10-30T03:47:27;31.77;;;21.70;;
12407;SDS011;6268;48.188;17.134;2022-10-30T03:49:56;28.10;;;21.17;;
12407;SDS011;6268;48.188;17.134;2022-10-30T03:52:25;27.92;;;21.80;;
12407;SDS011;6268;48.188;17.134;2022-10-30T03:54:54;27.75;;;21.05;;
12407;SDS011;6268;48.188;17.134;2022-10-30T03:57:23;27.77;;;20.42;;
12407;SDS011;6268;48.188;17.134;2022-10-30T03:59:53;23.90;;;19.95;;
12407;SDS011;6268;48.188;17.134;2022-10-30T04:02:21;23.70;;;19.65;;
12407;SDS011;6268;48.188;17.134;2022-10-30T04:04:50;23.45;;;18.50;;
12407;SDS011;6268;48.188;17.134;2022-10-30T04:07:18;24.00;;;18.85;;
12407;SDS011;6268;48.188;17.134;2022-10-30T04:09:47;24.38;;;18.08;;
12407;SDS011;6268;48.188;17.134;2022-10-30T04:12:16;23.45;;;17.50;;
12407;SDS011;6268;48.188;17.134;2022-10-30T04:14:45;23.75;;;17.55;;
12407;SDS011;6268;48.188;17.134;2022-10-30T04:17:15;20.08;;;17.13;;
12407;SDS011;6268;48.188;17.134;2022-10-30T04:19:43;16.83;;;14.68;;
12407;SDS011;6268;48.188;17.134;2022-10-30T04:22:12;18.20;;;14.77;;
12407;SDS011;6268;48.188;17.134;2022-10-30T04:24:40;16.73;;;14.75;;
12407;SDS011;6268;48.188;17.134;2022-10-30T04:27:10;18.55;;;14.60;;
12407;SDS011;6268;48.188;17.134;2022-10-30T04:29:39;16.27;;;14.57;;
12407;SDS011;6268;48.188;17.134;2022-10-30T04:32:08;16.63;;;14.93;;
12407;SDS011;6268;48.188;17.134;2022-10-30T04:34:39;20.77;;;16.02;;
12407;SDS011;6268;48.188;17.134;2022-10-30T04:37:07;21.30;;;17.15;;
12407;SDS011;6268;48.188;17.134;2022-10-30T04:39:36;23.25;;;17.52;;
12407;SDS011;6268;48.188;17.134;2022-10-30T04:42:11;21.27;;;17.35;;
12407;SDS011;6268;48.188;17.134;2022-10-30T04:44:40;19.77;;;16.23;;
12407;SDS011;6268;48.188;17.134;2022-10-30T04:47:08;19.13;;;16.70;;
12407;SDS011;6268;48.188;17.134;2022-10-30T04:49:38;17.48;;;15.40;;
12407;SDS011;6268;48.188;17.134;2022-10-30T04:52:07;17.45;;;15.38;;
12407;SDS011;6268;48.188;17.134;2022-10-30T04:54:36;19.45;;;15.52;;
12407;SDS011;6268;48.188;17.134;2022-10-30T04:57:04;17.50;;;15.55;;
12407;SDS011;6268;48.188;17.134;2022-10-30T04:59:34;17.15;;;15.15;;
12407;SDS011;6268;48.188;17.134;2022-10-30T05:02:02;21.65;;;15.73;;
12407;SDS011;6268;48.188;17.134;2022-10-30T05:04:31;19.33;;;17.25;;
12407;SDS011;6268;48.188;17.134;2022-10-30T05:07:01;22.45;;;17.08;;
12407;SDS011;6268;48.188;17.134;2022-10-30T05:09:30;21.27;;;16.48;;
12407;SDS011;6268;48.188;17.134;2022-10-30T05:11:59;22.45;;;15.90;;
12407;SDS011;6268;48.188;17.134;2022-10-30T05:14:28;26.65;;;17.83;;
12407;SDS011;6268;48.188;17.134;2022-10-30T05:16:57;23.25;;;16.75;;
12407;SDS011;6268;48.188;17.134;2022-10-30T05:19:26;24.05;;;17.25;;
12407;SDS011;6268;48.188;17.134;2022-10-30T05:21:55;22.40;;;16.98;;
12407;SDS011;6268;48.188;17.134;2022-10-30T05:24:25;24.15;;;17.48;;
12407;SDS011;6268;48.188;17.134;2022-10-30T05:26:54;23.15;;;17.83;;
12407;SDS011;6268;48.188;17.134;2022-10-30T05:29:22;22.45;;;17.20;;
12407;SDS011;6268;48.188;17.134;2022-10-30T05:31:51;23.48;;;18.30;;
12407;SDS011;6268;48.188;17.134;2022-10-30T05:34:20;22.25;;;16.60;;
12407;SDS011;6268;48.188;17.134;2022-10-30T05:36:48;21.92;;;17.38;;
12407;SDS011;6268;48.188;17.134;2022-10-30T05:39:17;20.85;;;17.92;;
12407;SDS011;6268;48.188;17.134;2022-10-30T05:41:47;22.55;;;17.27;;
12407;SDS011;6268;48.188;17.134;2022-10-30T05:44:15;18.73;;;16.48;;
12407;SDS011;6268;48.188;17.134;2022-10-30T05:47:04;18.75;;;15.93;;
12407;SDS011;6268;48.188;17.134;2022-10-30T05:49:32;19.83;;;16.90;;
12407;SDS011;6268;48.188;17.134;2022-10-30T05:52:01;18.67;;;15.52;;
12407;SDS011;6268;48.188;17.134;2022-10-30T05:54:30;18.83;;;15.73;;
12407;SDS011;6268;48.188;17.134;2022-10-30T05:57:19;18.25;;;15.05;;
12407;SDS011;6268;48.188;17.134;2022-10-30T05:59:47;19.48;;;15.80;;
12407;SDS011;6268;48.188;17.134;2022-10-30T06:02:16;16.55;;;14.75;;
12407;SDS011;6268;48.188;17.134;2022-10-30T06:04:45;17.10;;;14.73;;
12407;SDS011;6268;48.188;17.134;2022-10-30T06:07:13;17.33;;;14.73;;
12407;SDS011;6268;48.188;17.134;2022-10-30T06:09:42;16.70;;;14.32;;
12407;SDS011;6268;48.188;17.134;2022-10-30T06:12:11;17.00;;;14.32;;
12407;SDS011;6268;48.188;17.134;2022-10-30T06:14:41;16.08;;;14.20;;
12407;SDS011;6268;48.188;17.134;2022-10-30T06:17:10;20.02;;;17.95;;
12407;SDS011;6268;48.188;17.134;2022-10-30T06:19:38;15.27;;;13.77;;
12407;SDS011;6268;48.188;17.134;2022-10-30T06:22:07;13.15;;;11.77;;
12407;SDS011;6268;48.188;17.134;2022-10-30T06:24:36;14.63;;;12.82;;
12407;SDS011;6268;48.188;17.134;2022-10-30T06:27:04;14.38;;;12.43;;
12407;SDS011;6268;48.188;17.134;2022-10-30T06:29:33;13.98;;;12.48;;
12407;SDS011;6268;48.188;17.134;2022-10-30T06:32:04;13.63;;;12.27;;
12407;SDS011;6268;48.188;17.134;2022-10-30T06:34:32;15.00;;;12.60;;
12407;SDS011;6268;48.188;17.134;2022-10-30T06:37:05;13.88;;;12.48;;
12407;SDS011;6268;48.188;17.134;2022-10-30T06:39:34;13.63;;;12.30;;
12407;SDS011;6268;48.188;17.134;2022-10-30T06:42:02;12.43;;;11.23;;
12407;SDS011;6268;48.188;17.134;2022-10-30T06:44:31;13.20;;;11.85;;
12407;SDS011;6268;48.188;17.134;2022-10-30T06:47:00;12.55;;;11.07;;
12407;SDS011;6268;48.188;17.134;2022-10-30T06:49:30;12.32;;;11.10;;
12407;SDS011;6268;48.188;17.134;2022-10-30T06:51:59;11.80;;;10.60;;
12407;SDS011;6268;48.188;17.134;2022-10-30T06:54:27;11.40;;;10.35;;
12407;SDS011;6268;48.188;17.134;2022-10-30T06:56:56;10.88;;;9.85;;
12407;SDS011;6268;48.188;17.134;2022-10-30T06:59:25;10.00;;;9.05;;
12407;SDS011;6268;48.188;17.134;2022-10-30T07:01:53;9.88;;;9.02;;
12407;SDS011;6268;48.188;17.134;2022-10-30T07:04:27;8.93;;;8.10;;
12407;SDS011;6268;48.188;17.134;2022-10-30T07:06:57;9.88;;;8.98;;
12407;SDS011;6268;48.188;17.134;2022-10-30T07:09:25;11.32;;;10.13;;
12407;SDS011;6268;48.188;17.134;2022-10-30T07:11:54;11.48;;;10.38;;
12407;SDS011;6268;48.188;17.134;2022-10-30T07:14:31;10.15;;;9.25;;
12407;SDS011;6268;48.188;17.134;2022-10-30T07:16:59;8.73;;;7.93;;
12407;SDS011;6268;48.188;17.134;2022-10-30T07:19:29;10.73;;;9.32;;
12407;SDS011;6268;48.188;17.134;2022-10-30T07:21:59;10.57;;;9.32;;
12407;SDS011;6268;48.188;17.134;2022-10-30T07:24:27;10.10;;;9.20;;
12407;SDS011;6268;48.188;17.134;2022-10-30T07:26:56;39.38;;;35.30;;
12407;SDS011;6268;48.188;17.134;2022-10-30T07:29:24;23.92;;;21.55;;
12407;SDS011;6268;48.188;17.134;2022-10-30T07:31:53;10.98;;;9.98;;
12407;SDS011;6268;48.188;17.134;2022-10-30T07:34:28;10.65;;;9.65;;
12407;SDS011;6268;48.188;17.134;2022-10-30T07:36:58;9.77;;;8.98;;
12407;SDS011;6268;48.188;17.134;2022-10-30T07:39:27;11.43;;;10.38;;
12407;SDS011;6268;48.188;17.134;2022-10-30T07:41:56;10.13;;;9.23;;
12407;SDS011;6268;48.188;17.134;2022-10-30T07:44:24;10.43;;;9.50;;
12407;SDS011;6268;48.188;17.134;2022-10-30T07:46:53;11.73;;;10.50;;
12407;SDS011;6268;48.188;17.134;2022-10-30T07:49:22;18.40;;;16.50;;
12407;SDS011;6268;48.188;17.134;2022-10-30T07:51:51;18.42;;;16.60;;
12407;SDS011;6268;48.188;17.134;2022-10-30T07:54:21;10.32;;;9.43;;
12407;SDS011;6268;48.188;17.134;2022-10-30T07:56:49;10.55;;;9.57;;
12407;SDS011;6268;48.188;17.134;2022-10-30T07:59:18;11.48;;;10.38;;
12407;SDS011;6268;48.188;17.134;2022-10-30T08:01:47;12.93;;;11.63;;
12407;SDS011;6268;48.188;17.134;2022-10-30T08:04:16;14.75;;;11.57;;
12407;SDS011;6268;48.188;17.134;2022-10-30T08:06:45;12.63;;;11.35;;
12407;SDS011;6268;48.188;17.134;2022-10-30T08:09:13;12.98;;;10.95;;
12407;SDS011;6268;48.188;17.134;2022-10-30T08:11:43;12.38;;;11.15;;
12407;SDS011;6268;48.188;17.134;2022-10-30T08:14:12;11.88;;;10.68;;
12407;SDS011;6268;48.188;17.134;2022-10-30T08:16:41;13.07;;;11.77;;
12407;SDS011;6268;48.188;17.134;2022-10-30T08:19:09;11.80;;;10.70;;
12407;SDS011;6268;48.188;17.134;2022-10-30T08:21:38;13.05;;;11.73;;
12407;SDS011;6268;48.188;17.134;2022-10-30T08:24:06;11.77;;;10.57;;
12407;SDS011;6268;48.188;17.134;2022-10-30T08:26:35;12.02;;;10.82;;
12407;SDS011;6268;48.188;17.134;2022-10-30T08:29:05;13.35;;;11.95;;
12407;SDS011;6268;48.188;17.134;2022-10-30T08:31:34;12.05;;;10.45;;
12407;SDS011;6268;48.188;17.134;2022-10-30T08:34:03;12.48;;;11.20;;
12407;SDS011;6268;48.188;17.134;2022-10-30T08:36:32;52.88;;;47.55;;
12407;SDS011;6268;48.188;17.134;2022-10-30T08:39:00;19.40;;;17.30;;
12407;SDS011;6268;48.188;17.134;2022-10-30T08:41:30;17.48;;;13.65;;
12407;SDS011;6268;48.188;17.134;2022-10-30T08:43:59;17.10;;;14.43;;
12407;SDS011;6268;48.188;17.134;2022-10-30T08:46:29;20.27;;;16.30;;
12407;SDS011;6268;48.188;17.134;2022-10-30T08:48:57;22.20;;;16.40;;
12407;SDS011;6268;48.188;17.134;2022-10-30T08:51:26;21.20;;;16.45;;
12407;SDS011;6268;48.188;17.134;2022-10-30T08:53:55;31.13;;;21.90;;
12407;SDS011;6268;48.188;17.134;2022-10-30T08:56:23;28.23;;;23.23;;
12407;SDS011;6268;48.188;17.134;2022-10-30T08:58:52;27.33;;;21.70;;
12407;SDS011;6268;48.188;17.134;2022-10-30T09:01:20;35.08;;;24.17;;
12407;SDS011;6268;48.188;17.134;2022-10-30T09:03:51;31.98;;;23.67;;
12407;SDS011;6268;48.188;17.134;2022-10-30T09:06:19;31.58;;;23.02;;
12407;SDS011;6268;48.188;17.134;2022-10-30T09:08:48;34.08;;;25.75;;
12407;SDS011;6268;48.188;17.134;2022-10-30T09:11:17;36.80;;;27.30;;
12407;SDS011;6268;48.188;17.134;2022-10-30T09:13:45;39.40;;;28.20;;
12407;SDS011;6268;48.188;17.134;2022-10-30T09:16:14;39.40;;;29.25;;
12407;SDS011;6268;48.188;17.134;2022-10-30T09:18:42;37.95;;;28.35;;
12407;SDS011;6268;48.188;17.134;2022-10-30T09:21:12;38.42;;;29.05;;
12407;SDS011;6268;48.188;17.134;2022-10-30T09:23:41;43.05;;;30.58;;
12407;SDS011;6268;48.188;17.134;2022-10-30T09:26:10;41.13;;;29.60;;
12407;SDS011;6268;48.188;17.134;2022-10-30T09:28:45;40.47;;;30.92;;
12407;SDS011;6268;48.188;17.134;2022-10-30T09:31:14;44.58;;;31.88;;
12407;SDS011;6268;48.188;17.134;2022-10-30T09:33:42;40.55;;;30.10;;
12407;SDS011;6268;48.188;17.134;2022-10-30T09:36:12;45.10;;;30.83;;
12407;SDS011;6268;48.188;17.134;2022-10-30T09:38:46;53.55;;;31.77;;
12407;SDS011;6268;48.188;17.134;2022-10-30T09:41:20;51.58;;;32.92;;
12407;SDS011;6268;48.188;17.134;2022-10-30T09:44:19;45.55;;;32.90;;
12407;SDS011;6268;48.188;17.134;2022-10-30T09:47:08;43.10;;;32.25;;
12407;SDS011;6268;48.188;17.134;2022-10-30T09:49:59;46.35;;;31.83;;
12407;SDS011;6268;48.188;17.134;2022-10-30T09:52:49;40.72;;;30.98;;
12407;SDS011;6268;48.188;17.134;2022-10-30T09:55:32;51.72;;;34.58;;
12407;SDS011;6268;48.188;17.134;2022-10-30T09:58:16;67.13;;;42.45;;
12407;SDS011;6268;48.188;17.134;2022-10-30T10:00:55;60.00;;;39.75;;
12407;SDS011;6268;48.188;17.134;2022-10-30T10:03:40;56.60;;;39.42;;
12407;SDS011;6268;48.188;17.134;2022-10-30T10:06:27;49.15;;;35.58;;
12407;SDS011;6268;48.188;17.134;2022-10-30T10:09:01;52.90;;;37.35;;
12407;SDS011;6268;48.188;17.134;2022-10-30T10:11:47;48.95;;;37.13;;
12407;SDS011;6268;48.188;17.134;2022-10-30T10:14:22;49.55;;;36.15;;
12407;SDS011;6268;48.188;17.134;2022-10-30T10:16:55;51.90;;;37.17;;
12407;SDS011;6268;48.188;17.134;2022-10-30T10:19:29;50.08;;;36.63;;
12407;SDS011;6268;48.188;17.134;2022-10-30T10:22:06;48.22;;;35.95;;
12407;SDS011;6268;48.188;17.134;2022-10-30T10:24:54;46.22;;;34.72;;
12407;SDS011;6268;48.188;17.134;2022-10-30T10:27:28;43.00;;;33.47;;
12407;SDS011;6268;48.188;17.134;2022-10-30T10:30:12;47.75;;;34.20;;
12407;SDS011;6268;48.188;17.134;2022-10-30T10:32:49;47.53;;;35.63;;
12407;SDS011;6268;48.188;17.134;2022-10-30T10:36:00;48.42;;;35.75;;
12407;SDS011;6268;48.188;17.134;2022-10-30T10:38:48;51.30;;;37.22;;
12407;SDS011;6268;48.188;17.134;2022-10-30T10:41:33;47.30;;;35.35;;
12407;SDS011;6268;48.188;17.134;2022-10-30T10:44:23;47.78;;;35.80;;
12407;SDS011;6268;48.188;17.134;2022-10-30T10:47:09;49.08;;;36.35;;
12407;SDS011;6268;48.188;17.134;2022-10-30T10:50:09;48.20;;;36.13;;
12407;SDS011;6268;48.188;17.134;2022-10-30T10:52:48;52.22;;;36.42;;
12407;SDS011;6268;48.188;17.134;2022-10-30T10:55:23;48.60;;;35.78;;
12407;SDS011;6268;48.188;17.134;2022-10-30T10:58:05;47.65;;;35.90;;
12407;SDS011;6268;48.188;17.134;2022-10-30T11:00:48;52.55;;;38.35;;
12407;SDS011;6268;48.188;17.134;2022-10-30T11:03:19;56.20;;;40.55;;
12407;SDS011;6268;48.188;17.134;2022-10-30T11:05:55;69.38;;;53.47;;
12407;SDS011;6268;48.188;17.134;2022-10-30T11:08:32;56.63;;;42.03;;
12407;SDS011;6268;48.188;17.134;2022-10-30T11:11:02;52.58;;;39.67;;
12407;SDS011;6268;48.188;17.134;2022-10-30T11:13:35;50.83;;;38.80;;
12407;SDS011;6268;48.188;17.134;2022-10-30T11:16:08;62.72;;;47.97;;
12407;SDS011;6268;48.188;17.134;2022-10-30T11:18:53;51.90;;;39.60;;
12407;SDS011;6268;48.188;17.134;2022-10-30T11:21:26;55.33;;;40.55;;
12407;SDS011;6268;48.188;17.134;2022-10-30T11:23:59;54.97;;;40.90;;
12407;SDS011;6268;48.188;17.134;2022-10-30T11:26:29;58.40;;;43.83;;
12407;SDS011;6268;48.188;17.134;2022-10-30T11:29:02;54.25;;;40.72;;
12407;SDS011;6268;48.188;17.134;2022-10-30T11:31:38;56.17;;;41.90;;
12407;SDS011;6268;48.188;17.134;2022-10-30T11:34:13;58.88;;;43.13;;
12407;SDS011;6268;48.188;17.134;2022-10-30T11:36:53;57.60;;;44.03;;
12407;SDS011;6268;48.188;17.134;2022-10-30T11:39:22;55.28;;;42.08;;
12407;SDS011;6268;48.188;17.134;2022-10-30T11:41:55;57.72;;;42.70;;
12407;SDS011;6268;48.188;17.134;2022-10-30T11:44:34;57.45;;;45.08;;
12407;SDS011;6268;48.188;17.134;2022-10-30T11:47:08;54.47;;;43.97;;
12407;SDS011;6268;48.188;17.134;2022-10-30T11:49:42;65.38;;;49.75;;
12407;SDS011;6268;48.188;17.134;2022-10-30T11:52:15;67.18;;;53.40;;
12407;SDS011;6268;48.188;17.134;2022-10-30T11:54:49;81.78;;;61.10;;
12407;SDS011;6268;48.188;17.134;2022-10-30T11:57:23;74.90;;;59.75;;
12407;SDS011;6268;48.188;17.134;2022-10-30T12:00:02;69.15;;;53.88;;
12407;SDS011;6268;48.188;17.134;2022-10-30T12:02:44;56.10;;;45.97;;
12407;SDS011;6268;48.188;17.134;2022-10-30T12:05:28;59.10;;;48.17;;
12407;SDS011;6268;48.188;17.134;2022-10-30T12:08:14;54.65;;;44.90;;
12407;SDS011;6268;48.188;17.134;2022-10-30T12:10:55;60.13;;;45.20;;
12407;SDS011;6268;48.188;17.134;2022-10-30T12:13:27;65.63;;;48.25;;
12407;SDS011;6268;48.188;17.134;2022-10-30T12:16:11;55.72;;;45.58;;
12407;SDS011;6268;48.188;17.134;2022-10-30T12:18:55;59.83;;;46.53;;
12407;SDS011;6268;48.188;17.134;2022-10-30T12:21:34;57.92;;;45.30;;
12407;SDS011;6268;48.188;17.134;2022-10-30T12:24:11;58.83;;;45.15;;
12407;SDS011;6268;48.188;17.134;2022-10-30T12:26:45;57.17;;;43.95;;
12407;SDS011;6268;48.188;17.134;2022-10-30T12:29:18;56.55;;;42.60;;
12407;SDS011;6268;48.188;17.134;2022-10-30T12:32:10;59.15;;;44.15;;
12407;SDS011;6268;48.188;17.134;2022-10-30T12:34:46;58.45;;;45.05;;
12407;SDS011;6268;48.188;17.134;2022-10-30T12:37:25;56.50;;;44.88;;
12407;SDS011;6268;48.188;17.134;2022-10-30T12:40:00;53.78;;;43.13;;
12407;SDS011;6268;48.188;17.134;2022-10-30T12:42:42;56.15;;;45.00;;
12407;SDS011;6268;48.188;17.134;2022-10-30T12:45:18;65.45;;;46.72;;
12407;SDS011;6268;48.188;17.134;2022-10-30T12:47:57;61.88;;;49.05;;
12407;SDS011;6268;48.188;17.134;2022-10-30T12:50:39;69.50;;;51.05;;
12407;SDS011;6268;48.188;17.134;2022-10-30T12:53:23;65.95;;;50.85;;
12407;SDS011;6268;48.188;17.134;2022-10-30T12:56:01;78.40;;;54.38;;
12407;SDS011;6268;48.188;17.134;2022-10-30T12:58:38;73.30;;;53.35;;
12407;SDS011;6268;48.188;17.134;2022-10-30T13:01:16;71.93;;;52.45;;
12407;SDS011;6268;48.188;17.134;2022-10-30T13:04:03;68.57;;;51.08;;
12407;SDS011;6268;48.188;17.134;2022-10-30T13:06:40;69.72;;;50.85;;
12407;SDS011;6268;48.188;17.134;2022-10-30T13:09:19;65.78;;;49.72;;
12407;SDS011;6268;48.188;17.134;2022-10-30T13:11:55;80.93;;;56.55;;
12407;SDS011;6268;48.188;17.134;2022-10-30T13:14:33;82.82;;;57.30;;
12407;SDS011;6268;48.188;17.134;2022-10-30T13:17:10;83.22;;;60.63;;
12407;SDS011;6268;48.188;17.134;2022-10-30T13:19:43;74.22;;;53.90;;
12407;SDS011;6268;48.188;17.134;2022-10-30T13:22:14;103.82;;;75.97;;
12407;SDS011;6268;48.188;17.134;2022-10-30T13:24:54;93.75;;;66.57;;
12407;SDS011;6268;48.188;17.134;2022-10-30T13:27:35;72.65;;;53.97;;
12407;SDS011;6268;48.188;17.134;2022-10-30T13:30:10;76.53;;;55.35;;
12407;SDS011;6268;48.188;17.134;2022-10-30T13:32:45;82.88;;;59.95;;
12407;SDS011;6268;48.188;17.134;2022-10-30T13:35:34;87.35;;;60.45;;
12407;SDS011;6268;48.188;17.134;2022-10-30T13:38:19;84.20;;;59.20;;
12407;SDS011;6268;48.188;17.134;2022-10-30T13:41:08;77.45;;;55.78;;
12407;SDS011;6268;48.188;17.134;2022-10-30T13:43:51;74.40;;;54.20;;
12407;SDS011;6268;48.188;17.134;2022-10-30T13:46:42;71.78;;;54.20;;
12407;SDS011;6268;48.188;17.134;2022-10-30T13:49:38;76.15;;;54.38;;
12407;SDS011;6268;48.188;17.134;2022-10-30T13:52:24;78.97;;;57.13;;
12407;SDS011;6268;48.188;17.134;2022-10-30T13:54:59;79.13;;;55.42;;
12407;SDS011;6268;48.188;17.134;2022-10-30T13:57:35;76.30;;;56.17;;
12407;SDS011;6268;48.188;17.134;2022-10-30T14:00:13;72.82;;;55.38;;
12407;SDS011;6268;48.188;17.134;2022-10-30T14:02:52;74.03;;;55.53;;
12407;SDS011;6268;48.188;17.134;2022-10-30T14:05:44;92.20;;;67.53;;
12407;SDS011;6268;48.188;17.134;2022-10-30T14:08:24;81.30;;;60.65;;
12407;SDS011;6268;48.188;17.134;2022-10-30T14:11:03;92.50;;;70.30;;
12407;SDS011;6268;48.188;17.134;2022-10-30T14:13:44;80.78;;;58.10;;
12407;SDS011;6268;48.188;17.134;2022-10-30T14:16:34;77.15;;;56.83;;
12407;SDS011;6268;48.188;17.134;2022-10-30T14:19:08;83.80;;;59.40;;
12407;SDS011;6268;48.188;17.134;2022-10-30T14:21:39;88.10;;;65.85;;
12407;SDS011;6268;48.188;17.134;2022-10-30T14:24:20;109.07;;;75.82;;
12407;SDS011;6268;48.188;17.134;2022-10-30T14:26:53;118.07;;;79.70;;
12407;SDS011;6268;48.188;17.134;2022-10-30T14:29:41;104.00;;;72.65;;
12407;SDS011;6268;48.188;17.134;2022-10-30T14:35:34;104.10;;;73.43;;
12407;SDS011;6268;48.188;17.134;2022-10-30T14:41:06;115.32;;;78.18;;
12407;SDS011;6268;48.188;17.134;2022-10-30T14:44:17;121.32;;;79.28;;
12407;SDS011;6268;48.188;17.134;2022-10-30T14:50:21;90.45;;;63.75;;
12407;SDS011;6268;48.188;17.134;2022-10-30T14:53:19;90.97;;;64.32;;
12407;SDS011;6268;48.188;17.134;2022-10-30T14:56:09;92.22;;;64.93;;
12407;SDS011;6268;48.188;17.134;2022-10-30T15:01:50;99.05;;;69.90;;
12407;SDS011;6268;48.188;17.134;2022-10-30T15:05:08;93.70;;;64.78;;
12407;SDS011;6268;48.188;17.134;2022-10-30T15:08:05;96.68;;;66.40;;
12407;SDS011;6268;48.188;17.134;2022-10-30T15:11:00;111.35;;;72.78;;
12407;SDS011;6268;48.188;17.134;2022-10-30T15:13:57;103.20;;;67.88;;
12407;SDS011;6268;48.188;17.134;2022-10-30T15:16:46;103.22;;;69.07;;
12407;SDS011;6268;48.188;17.134;2022-10-30T15:19:18;107.63;;;70.72;;
12407;SDS011;6268;48.188;17.134;2022-10-30T15:21:51;122.63;;;73.72;;
12407;SDS011;6268;48.188;17.134;2022-10-30T15:24:23;118.97;;;75.28;;